createdAt,value
2018-11-14T00:00:48.111Z,101762.45
2018-11-14T00:03:29.648Z,101757.26
2018-11-14T00:06:11.339Z,101760.75
2018-11-14T00:08:53.649Z,101760.30
2018-11-14T00:11:36.070Z,101759.42
2018-11-14T00:14:18.160Z,101761.50
2018-11-14T00:17:00.117Z,101761.09
2018-11-14T00:19:42.321Z,101759.68
2018-11-14T00:22:25.388Z,101756.61
2018-11-14T00:25:07.521Z,101755.49
2018-11-14T00:27:49.922Z,101747.77
2018-11-14T00:30:32.229Z,101744.07
2018-11-14T00:33:14.667Z,101748.19
2018-11-14T00:35:55.997Z,101748.81
2018-11-14T00:38:37.577Z,101743.36
2018-11-14T00:41:19.897Z,101742.45
2018-11-14T00:44:02.620Z,101740.50
2018-11-14T00:46:45.132Z,101745.16
2018-11-14T00:49:27.949Z,101751.30
2018-11-14T00:52:09.520Z,101751.72
2018-11-14T00:54:51.323Z,101759.87
2018-11-14T00:57:34.223Z,101758.87
2018-11-14T01:00:17.589Z,101754.92
2018-11-14T01:02:59.851Z,101761.82
2018-11-14T01:05:43.110Z,101765.64
2018-11-14T01:08:24.905Z,101771.82
2018-11-14T01:11:06.504Z,101766.45
2018-11-14T01:13:48.584Z,101770.27
2018-11-14T01:16:30.678Z,101772.15
2018-11-14T01:19:13.504Z,101771.23
2018-11-14T01:21:57.546Z,101765.53
2018-11-14T01:24:39.361Z,101763.42
2018-11-14T01:27:21.615Z,101758.82
2018-11-14T01:30:04.542Z,101766.50
2018-11-14T01:32:47.337Z,101770.23
2018-11-14T01:35:28.953Z,101773.73
2018-11-14T01:38:11.005Z,101779.98
2018-11-14T01:40:53.348Z,101777.08
2018-11-14T01:43:35.344Z,101776.77
2018-11-14T01:46:18.377Z,101778.59
2018-11-14T01:49:00.469Z,101775.47
2018-11-14T01:51:42.405Z,101771.92
2018-11-14T01:54:24.988Z,101773.77
2018-11-14T01:57:07.097Z,101773.81
2018-11-14T01:59:49.737Z,101770.87
2018-11-14T02:02:32.943Z,101764.06
2018-11-14T02:05:14.713Z,101774.27
2018-11-14T02:07:57.064Z,101769.03
2018-11-14T02:10:39.425Z,101761.26
2018-11-14T02:13:21.240Z,101765.49
2018-11-14T02:16:03.658Z,101764.44
2018-11-14T02:18:45.833Z,101763.84
2018-11-14T02:21:28.004Z,101767.05
2018-11-14T02:24:10.606Z,101762.67
2018-11-14T02:26:53.541Z,101763.96
2018-11-14T02:29:35.256Z,101761.75
2018-11-14T02:32:17.381Z,101764.19
2018-11-14T02:35:00.178Z,101757.80
2018-11-14T02:37:43.381Z,101765.94
2018-11-14T02:40:25.231Z,101764.84
2018-11-14T02:43:08.770Z,101769.02
2018-11-14T02:45:51.163Z,101761.70
2018-11-14T02:48:33.234Z,101761.61
2018-11-14T02:51:25.535Z,101752.23
2018-11-14T02:54:07.485Z,101743.27
2018-11-14T02:56:49.386Z,101751.45
2018-11-14T02:59:31.915Z,101752.70
2018-11-14T03:02:18.208Z,101754.95
2018-11-14T03:05:00.761Z,101760.84
2018-11-14T03:07:43.289Z,101755.73
2018-11-14T03:10:25.730Z,101739.88
2018-11-14T03:13:08.035Z,101738.84
2018-11-14T03:15:50.851Z,101741.16
2018-11-14T03:18:32.951Z,101742.03
2018-11-14T03:21:14.665Z,101745.30
2018-11-14T03:23:57.379Z,101745.13
2018-11-14T03:26:39.469Z,101739.33
2018-11-14T03:29:21.257Z,101742.08
2018-11-14T03:32:04.237Z,101741.34
2018-11-14T03:34:46.475Z,101733.16
2018-11-14T03:37:28.801Z,101729.63
2018-11-14T03:40:13.236Z,101731.38
2018-11-14T03:42:55.642Z,101726.09
2018-11-14T03:45:37.537Z,101727.97
2018-11-14T03:48:19.639Z,101727.42
2018-11-14T03:51:01.425Z,101729.03
2018-11-14T03:53:43.345Z,101728.34
2018-11-14T03:56:27.684Z,101731.97
2018-11-14T03:59:10.280Z,101730.77
2018-11-14T04:01:53.016Z,101722.88
2018-11-14T04:04:35.861Z,101721.08
2018-11-14T04:07:17.921Z,101720.94
2018-11-14T04:10:00.149Z,101729.16
2018-11-14T04:12:42.385Z,101729.06
2018-11-14T04:15:24.638Z,101729.33
2018-11-14T04:18:07.245Z,101723.50
2018-11-14T04:20:49.780Z,101729.12
2018-11-14T04:23:31.860Z,101734.03
2018-11-14T04:26:13.881Z,101735.73
2018-11-14T04:28:56.470Z,101733.53
2018-11-14T04:31:38.570Z,101737.09
2018-11-14T04:34:21.273Z,101730.81
2018-11-14T04:37:04.185Z,101723.52
2018-11-14T04:39:46.168Z,101710.23
2018-11-14T04:42:27.812Z,101715.74
2018-11-14T04:45:15.628Z,101710.73
2018-11-14T04:47:58.112Z,101707.15
2018-11-14T04:50:40.630Z,101710.69
2018-11-14T04:53:22.779Z,101700.95
2018-11-14T04:56:04.890Z,101694.92
2018-11-14T04:58:46.559Z,101693.59
2018-11-14T05:01:29.221Z,101707.92
2018-11-14T05:04:11.225Z,101715.09
2018-11-14T05:06:53.545Z,101717.38
2018-11-14T05:09:36.345Z,101719.13
2018-11-14T05:12:17.846Z,101715.79
2018-11-14T05:14:59.975Z,101711.05
2018-11-14T05:17:42.698Z,101720.16
2018-11-14T05:20:24.982Z,101710.64
2018-11-14T05:23:07.313Z,101703.20
2018-11-14T05:25:50.932Z,101701.22
2018-11-14T05:28:33.210Z,101693.64
2018-11-14T05:31:14.975Z,101697.63
2018-11-14T05:33:57.721Z,101691.02
2018-11-14T05:36:39.292Z,101692.86
2018-11-14T05:39:21.328Z,101686.97
2018-11-14T05:42:04.085Z,101692.03
2018-11-14T05:44:46.380Z,101687.66
2018-11-14T05:47:28.922Z,101681.92
2018-11-14T05:50:13.558Z,101682.88
2018-11-14T05:52:56.529Z,101684.77
2018-11-14T05:55:39.058Z,101689.27
2018-11-14T05:58:22.073Z,101686.55
2018-11-14T06:01:03.628Z,101686.09
2018-11-14T06:03:45.245Z,101691.19
2018-11-14T06:06:27.739Z,101684.90
2018-11-14T06:09:10.742Z,101690.53
2018-11-14T06:11:52.835Z,101693.97
2018-11-14T06:14:34.261Z,101697.73
2018-11-14T06:17:16.231Z,101698.61
2018-11-14T06:19:58.274Z,101689.70
2018-11-14T06:22:40.240Z,101699.12
2018-11-14T06:25:30.977Z,101702.45
2018-11-14T06:28:12.660Z,101701.47
2018-11-14T06:30:55.010Z,101703.97
2018-11-14T06:33:36.864Z,101708.61
2018-11-14T06:39:28.476Z,101706.56
2018-11-14T06:42:10.389Z,101701.47
2018-11-14T06:44:52.579Z,101700.84
2018-11-14T06:47:34.879Z,101707.64
2018-11-14T06:50:16.589Z,101709.19
2018-11-14T06:53:06.974Z,101713.16
2018-11-14T06:55:48.696Z,101711.50
2018-11-14T06:58:30.261Z,101717.88
2018-11-14T07:01:12.345Z,101721.33
2018-11-14T07:03:54.577Z,101726.30
2018-11-14T07:06:36.442Z,101731.77
2018-11-14T07:09:18.538Z,101742.27
2018-11-14T07:12:00.978Z,101750.53
2018-11-14T07:14:42.639Z,101753.36
2018-11-14T07:17:25.047Z,101760.62
2018-11-14T07:20:15.373Z,101760.81
2018-11-14T07:22:57.471Z,101750.74
2018-11-14T07:25:39.757Z,101754.23
2018-11-14T07:28:21.242Z,101753.92
2018-11-14T07:31:03.804Z,101754.44
2018-11-14T07:33:46.246Z,101752.83
2018-11-14T07:36:28.734Z,101759.84
2018-11-14T07:39:11.192Z,101765.13
2018-11-14T07:41:53.563Z,101776.25
2018-11-14T07:44:35.179Z,101774.96
2018-11-14T07:47:16.892Z,101773.58
2018-11-14T07:49:59.307Z,101774.83
2018-11-14T07:52:41.043Z,101771.70
2018-11-14T07:55:23.600Z,101780.55
2018-11-14T07:58:05.898Z,101782.83
2018-11-14T08:00:47.697Z,101779.80
2018-11-14T08:03:29.903Z,101777.91
2018-11-14T08:06:12.311Z,101781.08
2018-11-14T08:08:54.102Z,101780.06
2018-11-14T08:11:36.610Z,101782.20
2018-11-14T08:14:19.234Z,101787.38
2018-11-14T08:17:01.244Z,101778.61
2018-11-14T08:19:44.067Z,101770.41
2018-11-14T08:22:25.626Z,101775.62
2018-11-14T08:25:09.498Z,101764.53
2018-11-14T08:27:51.840Z,101765.07
2018-11-14T08:30:34.065Z,101771.00
2018-11-14T08:33:16.237Z,101770.22
2018-11-14T08:35:58.454Z,101767.53
2018-11-14T08:38:39.816Z,101770.58
2018-11-14T08:41:22.414Z,101760.47
2018-11-14T08:44:04.513Z,101770.72
2018-11-14T08:46:46.754Z,101761.16
2018-11-14T08:49:29.048Z,101762.46
2018-11-14T08:52:11.150Z,101770.73
2018-11-14T08:54:53.592Z,101773.16
2018-11-14T08:57:36.410Z,101773.09
2018-11-14T09:00:20.730Z,101778.36
2018-11-14T09:03:03.170Z,101780.17
2018-11-14T09:05:45.443Z,101782.94
2018-11-14T09:08:27.536Z,101781.73
2018-11-14T09:11:09.695Z,101770.52
2018-11-14T09:13:51.476Z,101769.11
2018-11-14T09:16:34.701Z,101765.29
2018-11-14T09:19:16.362Z,101770.34
2018-11-14T09:21:58.669Z,101771.11
2018-11-14T09:24:40.668Z,101769.40
2018-11-14T09:27:22.562Z,101769.55
2018-11-14T09:30:05.655Z,101771.88
2018-11-14T09:32:47.664Z,101768.12
2018-11-14T09:35:29.540Z,101768.97
2018-11-14T09:38:12.182Z,101774.78
2018-11-14T09:40:55.951Z,101775.65
2018-11-14T09:43:38.039Z,101770.98
2018-11-14T09:46:20.061Z,101765.50
2018-11-14T09:49:01.806Z,101775.31
2018-11-14T09:51:43.318Z,101768.33
2018-11-14T09:54:25.316Z,101772.92
2018-11-14T09:57:08.747Z,101772.95
2018-11-14T09:59:50.661Z,101776.36
2018-11-14T10:02:32.969Z,101772.91
2018-11-14T10:05:16.633Z,101774.52
2018-11-14T10:07:59.350Z,101769.39
2018-11-14T10:10:41.628Z,101768.17
2018-11-14T10:13:24.599Z,101765.06
2018-11-14T10:16:06.443Z,101760.76
2018-11-14T10:18:48.217Z,101752.50
2018-11-14T10:21:31.107Z,101751.64
2018-11-14T10:24:13.589Z,101751.24
2018-11-14T10:26:55.877Z,101745.14
2018-11-14T10:29:38.890Z,101746.89
2018-11-14T10:32:20.750Z,101753.33
2018-11-14T10:35:02.350Z,101755.13
2018-11-14T10:37:44.680Z,101760.32
2018-11-14T10:40:27.508Z,101756.02
2018-11-14T10:43:09.166Z,101747.67
2018-11-14T10:45:51.147Z,101754.28
2018-11-14T10:48:33.083Z,101750.80
2018-11-14T10:51:14.641Z,101751.02
2018-11-14T10:53:56.316Z,101749.40
2018-11-14T10:56:37.686Z,101744.73
2018-11-14T10:59:20.325Z,101737.77
2018-11-14T11:02:08.405Z,101734.33
2018-11-14T11:04:55.552Z,101729.44
2018-11-14T11:07:43.253Z,101726.02
2018-11-14T11:10:30.609Z,101726.52
2018-11-14T11:13:18.029Z,101724.20
2018-11-14T11:16:41.467Z,101722.73
2018-11-14T11:19:26.028Z,101718.27
2018-11-14T11:22:07.708Z,101715.20
2018-11-14T11:24:50.023Z,101718.66
2018-11-14T11:27:32.727Z,101719.08
2018-11-14T11:30:15.006Z,101717.38
2018-11-14T11:32:56.625Z,101719.94
2018-11-14T11:35:42.756Z,101720.42
2018-11-14T11:38:25.893Z,101715.46
2018-11-14T11:41:08.771Z,101709.90
2018-11-14T11:43:50.941Z,101706.03
2018-11-14T11:46:32.894Z,101696.88
2018-11-14T11:49:15.309Z,101684.36
2018-11-14T11:51:57.470Z,101676.61
2018-11-14T11:54:38.916Z,101674.37
2018-11-14T11:57:20.636Z,101670.51
2018-11-14T12:00:03.341Z,101672.58
2018-11-14T12:02:46.084Z,101669.66
2018-11-14T12:05:27.964Z,101667.05
2018-11-14T12:08:16.228Z,101678.30
2018-11-14T12:11:05.650Z,101676.60
2018-11-14T12:13:48.783Z,101673.53
2018-11-14T12:16:31.210Z,101668.17
2018-11-14T12:19:14.166Z,101672.66
2018-11-14T12:21:55.822Z,101678.77
2018-11-14T12:24:38.457Z,101678.77
2018-11-14T12:27:20.865Z,101676.60
2018-11-14T12:30:02.569Z,101673.13
2018-11-14T12:32:44.855Z,101673.53
2018-11-14T12:35:26.483Z,101667.02
2018-11-14T12:38:09.042Z,101668.23
2018-11-14T12:40:51.049Z,101671.40
2018-11-14T12:43:41.459Z,101671.28
2018-11-14T12:46:36.596Z,101661.23
2018-11-14T12:49:19.156Z,101659.12
2018-11-14T12:52:01.290Z,101663.08
2018-11-14T12:54:43.661Z,101661.86
2018-11-14T12:57:25.684Z,101665.88
2018-11-14T13:00:09.656Z,101655.47
2018-11-14T13:02:55.264Z,101651.86
2018-11-14T13:05:44.791Z,101653.81
2018-11-14T13:08:26.636Z,101658.25
2018-11-14T13:11:08.456Z,101659.63
2018-11-14T13:13:50.144Z,101667.44
2018-11-14T13:16:32.444Z,101660.48
2018-11-14T13:19:14.055Z,101651.25
2018-11-14T13:21:55.835Z,101653.09
2018-11-14T13:24:37.932Z,101647.65
2018-11-14T13:27:19.809Z,101641.20
2018-11-14T13:30:02.437Z,101647.93
2018-11-14T13:32:45.338Z,101646.42
2018-11-14T13:35:27.250Z,101640.56
2018-11-14T13:38:08.729Z,101647.38
2018-11-14T13:40:50.410Z,101636.41
2018-11-14T13:43:31.892Z,101633.64
2018-11-14T13:46:13.468Z,101633.55
2018-11-14T13:48:55.296Z,101635.34
2018-11-14T13:51:37.405Z,101633.28
2018-11-14T13:54:18.670Z,101637.04
2018-11-14T13:57:01.313Z,101638.49
2018-11-14T13:59:43.517Z,101641.39
2018-11-14T14:02:25.894Z,101642.09
2018-11-14T14:05:10.619Z,101643.91
2018-11-14T14:07:53.011Z,101650.23
2018-11-14T14:10:35.480Z,101642.97
2018-11-14T14:13:17.194Z,101647.41
2018-11-14T14:15:58.307Z,101642.75
2018-11-14T14:18:40.657Z,101636.23
2018-11-14T14:21:22.830Z,101638.44
2018-11-14T14:24:04.554Z,101634.52
2018-11-14T14:26:46.844Z,101632.38
2018-11-14T14:29:28.361Z,101641.48
2018-11-14T14:32:10.659Z,101634.48
2018-11-14T14:34:51.930Z,101625.41
2018-11-14T14:37:33.315Z,101625.70
2018-11-14T14:40:17.994Z,101627.02
2018-11-14T14:42:59.661Z,101623.97
2018-11-14T14:45:41.646Z,101628.33
2018-11-14T14:48:25.057Z,101626.48
2018-11-14T14:51:07.929Z,101630.80
2018-11-14T14:53:50.201Z,101632.05
2018-11-14T14:56:32.804Z,101631.16
2018-11-14T14:59:15.299Z,101625.42
2018-11-14T15:02:01.378Z,101623.70
2018-11-14T15:04:43.564Z,101617.55
2018-11-14T15:07:25.649Z,101614.94
2018-11-14T15:10:10.353Z,101611.49
2018-11-14T15:12:52.834Z,101612.48
2018-11-14T15:15:35.014Z,101607.92
2018-11-14T15:18:17.100Z,101603.54
2018-11-14T15:20:59.315Z,101602.52
2018-11-14T15:23:40.711Z,101606.84
2018-11-14T15:26:22.374Z,101610.00
2018-11-14T15:29:04.268Z,101603.84
2018-11-14T15:31:46.353Z,101595.19
2018-11-14T15:34:29.731Z,101601.11
2018-11-14T15:37:11.404Z,101600.35
2018-11-14T15:39:53.184Z,101592.82
2018-11-14T15:42:36.160Z,101589.83
2018-11-14T15:45:20.642Z,101588.48
2018-11-14T15:48:02.257Z,101597.29
2018-11-14T15:50:43.953Z,101597.86
2018-11-14T15:53:26.445Z,101602.62
2018-11-14T15:56:08.593Z,101602.09
2018-11-14T15:59:03.198Z,101598.25
2018-11-14T16:01:46.792Z,101596.84
2018-11-14T16:04:28.578Z,101592.40
2018-11-14T16:07:11.074Z,101588.95
2018-11-14T16:09:53.917Z,101585.49
2018-11-14T16:12:36.777Z,101588.83
2018-11-14T16:15:19.902Z,101578.83
2018-11-14T16:18:02.038Z,101581.91
2018-11-14T16:20:44.880Z,101573.42
2018-11-14T16:23:26.966Z,101570.03
2018-11-14T16:26:08.368Z,101570.48
2018-11-14T16:28:51.394Z,101567.08
2018-11-14T16:31:33.780Z,101562.20
2018-11-14T16:34:15.909Z,101556.52
2018-11-14T16:36:57.990Z,101562.20
2018-11-14T16:42:33.469Z,101554.98
2018-11-14T16:45:16.232Z,101558.92
2018-11-14T16:47:58.087Z,101558.20
2018-11-14T16:50:42.008Z,101562.50
2018-11-14T16:53:24.116Z,101560.36
2018-11-14T16:56:07.969Z,101559.02
2018-11-14T16:58:49.842Z,101564.41
2018-11-14T17:01:32.579Z,101570.24
2018-11-14T17:04:14.349Z,101570.95
2018-11-14T17:06:55.976Z,101572.84
2018-11-14T17:09:38.357Z,101569.01
2018-11-14T17:12:21.305Z,101575.34
2018-11-14T17:15:05.569Z,101573.86
2018-11-14T17:17:47.006Z,101571.77
2018-11-14T17:20:30.238Z,101573.64
2018-11-14T17:23:22.099Z,101585.42
2018-11-14T17:26:05.033Z,101584.58
2018-11-14T17:28:47.393Z,101584.55
2018-11-14T17:31:29.049Z,101583.09
2018-11-14T17:34:10.688Z,101578.17
2018-11-14T17:36:52.381Z,101582.73
2018-11-14T17:39:34.918Z,101590.47
2018-11-14T17:42:18.035Z,101597.27
2018-11-14T17:45:00.007Z,101591.33
2018-11-14T17:47:43.192Z,101590.95
2018-11-14T17:50:27.439Z,101594.25
2018-11-14T17:53:09.484Z,101594.70
2018-11-14T17:55:51.046Z,101593.86
2018-11-14T17:58:33.529Z,101594.93
2018-11-14T18:01:15.172Z,101597.13
2018-11-14T18:03:56.622Z,101599.25
2018-11-14T18:06:39.649Z,101600.88
2018-11-14T18:09:21.941Z,101607.13
2018-11-14T18:12:04.478Z,101604.31
2018-11-14T18:14:46.538Z,101603.82
2018-11-14T18:17:28.356Z,101599.38
2018-11-14T18:20:12.023Z,101605.15
2018-11-14T18:22:55.618Z,101607.98
2018-11-14T18:25:41.273Z,101611.81
2018-11-14T18:28:23.454Z,101611.97
2018-11-14T18:31:05.241Z,101611.36
2018-11-14T18:33:47.818Z,101608.48
2018-11-14T18:36:29.656Z,101612.50
2018-11-14T18:39:13.148Z,101610.44
2018-11-14T18:41:54.614Z,101617.23
2018-11-14T18:44:36.800Z,101620.55
2018-11-14T18:47:19.358Z,101615.31
2018-11-14T18:50:02.281Z,101620.37
2018-11-14T18:52:44.417Z,101616.66
2018-11-14T18:55:28.707Z,101610.00
2018-11-14T18:58:11.370Z,101610.42
2018-11-14T19:00:53.749Z,101616.27
2018-11-14T19:03:36.406Z,101610.55
2018-11-14T19:06:18.788Z,101614.02
2018-11-14T19:09:02.118Z,101620.39
2018-11-14T19:11:43.914Z,101609.92
2018-11-14T19:14:26.189Z,101616.25
2018-11-14T19:17:08.645Z,101615.06
2018-11-14T19:19:50.923Z,101612.39
2018-11-14T19:22:33.120Z,101609.73
2018-11-14T19:25:17.280Z,101613.55
2018-11-14T19:27:59.461Z,101616.37
2018-11-14T19:30:43.098Z,101617.11
2018-11-14T19:33:25.609Z,101617.58
2018-11-14T19:36:07.907Z,101617.48
2018-11-14T19:38:50.630Z,101620.27
2018-11-14T19:41:33.681Z,101613.28
2018-11-14T19:44:16.060Z,101604.76
2018-11-14T19:46:59.212Z,101604.76
2018-11-14T19:49:41.286Z,101606.23
2018-11-14T19:52:23.571Z,101602.47
2018-11-14T19:55:06.331Z,101600.63
2018-11-14T19:57:49.941Z,101595.12
2018-11-14T20:00:35.626Z,101595.16
2018-11-14T20:03:17.973Z,101593.88
2018-11-14T20:05:59.945Z,101595.53
2018-11-14T20:08:44.198Z,101591.95
2018-11-14T20:11:26.994Z,101594.06
2018-11-14T20:14:08.906Z,101597.05
2018-11-14T20:16:51.605Z,101592.62
2018-11-14T20:19:33.473Z,101588.77
2018-11-14T20:22:16.127Z,101590.55
2018-11-14T20:24:58.829Z,101589.22
2018-11-14T20:27:41.647Z,101578.70
2018-11-14T20:30:25.216Z,101587.66
2018-11-14T20:33:11.805Z,101579.94
2018-11-14T20:35:53.916Z,101577.69
2018-11-14T20:38:37.321Z,101570.85
2018-11-14T20:41:20.552Z,101569.89
2018-11-14T20:44:02.643Z,101569.31
2018-11-14T20:46:45.662Z,101568.66
2018-11-14T20:49:28.481Z,101568.20
2018-11-14T20:52:12.811Z,101566.36
2018-11-14T20:54:54.330Z,101562.51
2018-11-14T20:57:37.857Z,101564.05
2018-11-14T21:00:23.585Z,101563.44
2018-11-14T21:03:06.524Z,101562.52
2018-11-14T21:05:49.090Z,101555.48
2018-11-14T21:08:31.068Z,101550.25
2018-11-14T21:11:14.297Z,101550.13
2018-11-14T21:13:57.214Z,101548.09
2018-11-14T21:16:39.313Z,101540.73
2018-11-14T21:19:22.997Z,101544.64
2018-11-14T21:22:06.086Z,101543.88
2018-11-14T21:24:48.737Z,101550.09
2018-11-14T21:27:32.229Z,101551.27
2018-11-14T21:30:16.162Z,101549.38
2018-11-14T21:32:58.263Z,101547.93
2018-11-14T21:35:40.371Z,101541.09
2018-11-14T21:38:26.104Z,101549.21
2018-11-14T21:41:09.046Z,101544.34
2018-11-14T21:43:51.906Z,101553.50
2018-11-14T21:46:34.288Z,101555.20
2018-11-14T21:49:22.950Z,101547.42
2018-11-14T21:52:05.666Z,101547.89
2018-11-14T21:54:48.244Z,101546.60
2018-11-14T21:57:30.260Z,101546.36
2018-11-14T22:00:18.677Z,101549.47
2018-11-14T22:03:01.029Z,101539.99
2018-11-14T22:05:43.901Z,101538.45
2018-11-14T22:08:26.450Z,101537.22
2018-11-14T22:11:08.733Z,101541.27
2018-11-14T22:13:51.198Z,101536.03
2018-11-14T22:18:52.602Z,101533.91
2018-11-14T22:21:34.858Z,101527.70
2018-11-14T22:24:17.442Z,101532.67
2018-11-14T22:26:59.860Z,101532.56
2018-11-14T22:29:42.390Z,101529.47
2018-11-14T22:32:24.665Z,101534.95
2018-11-14T22:35:08.735Z,101534.03
2018-11-14T22:37:50.829Z,101538.70
2018-11-14T22:40:33.329Z,101531.61
2018-11-14T22:43:15.408Z,101531.55
2018-11-14T22:45:57.101Z,101518.95
2018-11-14T22:48:39.113Z,101520.27
2018-11-14T22:51:21.649Z,101515.92
2018-11-14T22:54:03.853Z,101514.13
2018-11-14T22:56:46.078Z,101511.62
2018-11-14T22:59:28.845Z,101515.23
2018-11-14T23:02:11.066Z,101515.70
2018-11-14T23:04:54.382Z,101514.31
2018-11-14T23:07:37.422Z,101519.14
2018-11-14T23:10:20.754Z,101517.03
2018-11-14T23:13:02.949Z,101511.95
2018-11-14T23:15:45.580Z,101516.22
2018-11-14T23:18:27.960Z,101520.70
2018-11-14T23:21:09.872Z,101520.59
2018-11-14T23:23:51.750Z,101522.75
2018-11-14T23:26:34.910Z,101524.09
2018-11-14T23:29:17.709Z,101521.30
2018-11-14T23:31:59.670Z,101528.52
2018-11-14T23:34:47.112Z,101526.78
2018-11-14T23:37:28.598Z,101528.75
2018-11-14T23:43:54.956Z,101531.59
2018-11-14T23:46:38.258Z,101530.06
2018-11-14T23:49:19.917Z,101522.84
2018-11-14T23:52:02.782Z,101522.38
2018-11-14T23:54:45.081Z,101523.19
2018-11-14T23:57:28.016Z,101518.66
